Waskish, MN

12:08 PM CST on January 19, 2018 (GMT -0600)
Waskish Municipal

Weather History for KVWU - September, 2013

Change the Weather History Date:

Sunday, September 29, 2013

  Actual Average (KBDE) Record (KBDE)
Temperature  
Mean Temperature 56 °F -  
Max Temperature 73 °F 62 °F 84 °F (1989)
Min Temperature 39 °F 39 °F 24 °F (1984)
Degree Days  
Heating Degree Days 9    
Growing Degree Days 6 (Base 50)    
Moisture  
Dew Point 45 °F    
Average Humidity 70    
Maximum Humidity 100    
Minimum Humidity 38    
Precipitation  
Precipitation 0.00 in - - ()
Sea Level Pressure  
Sea Level Pressure 29.75 in    
Wind  
Wind Speed 4 mph (SSE)    
Max Wind Speed 13 mph    
Max Gust Speed 22 mph    
Visibility 10 miles    
Events      
Averages and records for this station are not official NWS values.
T = Trace of Precipitation, MM = Missing Value Source: NWS Daily Summary

Daily Weather History Graph

Daily Weather History Graph

Search for Another Location

Airport or City:

Trip Planner

Search our weather history database for the weather conditions in past years. The results will help you decide how hot, cold, wet, or windy it might be!

Date:

Astronomy

Sep. 29, 2013 Rise Set
Actual Time 7:14 AM CDT 7:00 PM CDT
Civil Twilight 6:43 AM CDT 7:31 PM CDT
Nautical Twilight 6:07 AM CDT 8:07 PM CDT
Astronomical Twilight 5:30 AM CDT 8:44 PM CDT
Moon 1:36 AM CDT (9/29) 4:15 PM CDT (9/29)
Length of Visible Light 12h 47m
Length of Day
11h 45m
Waning Crescent, 27% of the Moon is Illuminated
Sep 29
Waning Crescent
Oct 4
New
Oct 11
First Quarter
Oct 18
Full
Oct 26
Last Quarter

Hourly Weather History & Observations

Time (CDT) Temp. Windchill Dew Point Humidity Pressure Visibility Wind Dir Wind Speed Gust Speed Precip Events Conditions
12:05 AM 46.4 °F 45.2 °F 44.6 °F 93% 29.78 in 10.0 mi South 3.5 mph - N/A   Scattered Clouds
12:24 AM 46.4 °F 45.2 °F 42.8 °F 87% 29.78 in 10.0 mi South 3.5 mph - N/A   Clear
12:45 AM 46.4 °F 45.2 °F 42.8 °F 87% 29.78 in 10.0 mi South 3.5 mph - N/A   Clear
1:05 AM 44.6 °F - 42.8 °F 93% 29.78 in 10.0 mi Calm Calm - N/A   Clear
1:25 AM 44.6 °F - 42.8 °F 93% 29.78 in 10.0 mi Calm Calm - N/A   Clear
1:45 AM 44.6 °F - 42.8 °F 93% 29.78 in 10.0 mi Calm Calm - N/A   Clear
2:05 AM 44.6 °F 43.1 °F 42.8 °F 93% 29.78 in 10.0 mi South 3.5 mph - N/A   Clear
2:25 AM 44.6 °F - 42.8 °F 93% 29.78 in 10.0 mi Calm Calm - N/A   Clear
2:45 AM 42.8 °F - 41.0 °F 93% 29.78 in 10.0 mi Calm Calm - N/A   Clear
3:05 AM 42.8 °F 41.1 °F 41.0 °F 93% 29.78 in 10.0 mi SSW 3.5 mph - N/A   Clear
3:25 AM 44.6 °F 43.1 °F 42.8 °F 93% 29.78 in 10.0 mi South 3.5 mph - N/A   Clear
3:45 AM 42.8 °F 41.1 °F 42.8 °F 100% 29.79 in 10.0 mi South 3.5 mph - N/A   Clear
4:05 AM 42.8 °F 41.1 °F 42.8 °F 100% 29.79 in 10.0 mi South 3.5 mph - N/A   Clear
4:25 AM 42.8 °F 41.1 °F 42.8 °F 100% 29.79 in 10.0 mi South 3.5 mph - N/A   Clear
4:45 AM 42.8 °F 41.1 °F 41.0 °F 93% 29.80 in 10.0 mi South 3.5 mph - N/A   Clear
5:05 AM 41.0 °F - 39.2 °F 93% 29.79 in 10.0 mi Calm Calm - N/A   Clear
5:25 AM 39.2 °F - 37.4 °F 93% 29.80 in 10.0 mi Calm Calm - N/A   Clear
5:45 AM 39.2 °F - 37.4 °F 93% 29.80 in 10.0 mi Calm Calm - N/A   Clear
6:05 AM 39.2 °F - 37.4 °F 93% 29.79 in 10.0 mi Calm Calm - N/A   Clear
6:25 AM 41.0 °F - 39.2 °F 93% 29.80 in 10.0 mi Calm Calm - N/A   Clear
6:45 AM 42.8 °F 40.1 °F 41.0 °F 93% 29.80 in 10.0 mi South 4.6 mph - N/A   Clear
7:05 AM 42.8 °F 41.1 °F 41.0 °F 93% 29.81 in 10.0 mi South 3.5 mph - N/A   Clear
7:25 AM 42.8 °F - 41.0 °F 93% 29.81 in 10.0 mi Calm Calm - N/A   Clear
7:45 AM 42.8 °F 40.1 °F 42.8 °F 100% 29.81 in 10.0 mi South 4.6 mph - N/A   Clear
8:05 AM 44.6 °F 43.1 °F 44.6 °F 100% 29.81 in 10.0 mi South 3.5 mph - N/A   Clear
8:25 AM 46.4 °F 44.3 °F 44.6 °F 93% 29.81 in 10.0 mi South 4.6 mph - N/A   Clear
8:45 AM 48.2 °F - 46.4 °F 93% 29.81 in 10.0 mi South 4.6 mph - N/A   Clear
9:05 AM 50.0 °F - 46.4 °F 87% 29.80 in 10.0 mi South 5.8 mph - N/A   Clear
9:25 AM 53.6 °F - 46.4 °F 77% 29.81 in 10.0 mi South 4.6 mph - N/A   Clear
9:45 AM 55.4 °F - 46.4 °F 72% 29.80 in 10.0 mi South 5.8 mph - N/A   Clear
10:04 AM 57.2 °F - 46.4 °F 67% 29.80 in 10.0 mi South 4.6 mph - N/A   Clear
10:25 AM 60.8 °F - 46.4 °F 59% 29.80 in 10.0 mi South 3.5 mph - N/A   Clear
10:45 AM 60.8 °F - 46.4 °F 59% 29.80 in 10.0 mi South 5.8 mph - N/A   Clear
11:04 AM 62.6 °F - 48.2 °F 59% 29.80 in 10.0 mi SSW 4.6 mph - N/A   Clear
11:25 AM 64.4 °F - 48.2 °F 56% 29.79 in 10.0 mi South 5.8 mph - N/A   Clear
11:45 AM 66.2 °F - 48.2 °F 52% 29.79 in 10.0 mi SSW 3.5 mph - N/A   Clear
12:04 PM 68.0 °F - 48.2 °F 49% 29.78 in 10.0 mi South 4.6 mph - N/A   Clear
12:25 PM 69.8 °F - 48.2 °F 46% 29.77 in 10.0 mi SSW 5.8 mph - N/A   Clear
12:45 PM 69.8 °F - 48.2 °F 46% 29.76 in 10.0 mi SSW 5.8 mph - N/A   Clear
1:04 PM 71.6 °F - 48.2 °F 43% 29.76 in 10.0 mi South 6.9 mph - N/A   Clear
1:25 PM 71.6 °F - 46.4 °F 41% 29.75 in 10.0 mi SSW 9.2 mph 16.1 mph N/A   Clear
1:45 PM 71.6 °F - 46.4 °F 41% 29.74 in 10.0 mi South 9.2 mph 17.3 mph N/A   Clear
2:05 PM 71.6 °F - 46.4 °F 41% 29.74 in 10.0 mi South 12.7 mph 17.3 mph N/A   Clear
2:25 PM 71.6 °F - 46.4 °F 41% 29.73 in 10.0 mi South 10.4 mph 17.3 mph N/A   Clear
2:45 PM 71.6 °F - 46.4 °F 41% 29.73 in 10.0 mi South 9.2 mph 21.9 mph N/A   Clear
3:05 PM 73.4 °F - 46.4 °F 38% 29.72 in 10.0 mi South 10.4 mph 16.1 mph N/A   Clear
3:25 PM 71.6 °F - 46.4 °F 41% 29.72 in 10.0 mi South 9.2 mph - N/A   Clear
3:45 PM 73.4 °F - 46.4 °F 38% 29.71 in 10.0 mi South 11.5 mph 18.4 mph N/A   Clear
4:05 PM 73.4 °F - 46.4 °F 38% 29.71 in 10.0 mi South 9.2 mph - N/A   Clear
4:25 PM 71.6 °F - 44.6 °F 38% 29.71 in 10.0 mi South 9.2 mph - N/A   Clear
4:45 PM 71.6 °F - 46.4 °F 41% 29.70 in 10.0 mi South 10.4 mph 17.3 mph N/A   Clear
5:05 PM 69.8 °F - 46.4 °F 43% 29.70 in 10.0 mi South 8.1 mph - N/A   Clear
5:25 PM 68.0 °F - 46.4 °F 46% 29.70 in 10.0 mi SSE 5.8 mph - N/A   Clear
5:45 PM 66.2 °F - 48.2 °F 52% 29.70 in 10.0 mi SSE 5.8 mph - N/A   Clear
6:05 PM 64.4 °F - 48.2 °F 56% 29.70 in 10.0 mi SE 3.5 mph - N/A   Clear
6:25 PM 64.4 °F - 48.2 °F 56% 29.70 in 10.0 mi SE 3.5 mph - N/A   Clear
6:45 PM 62.6 °F - 48.2 °F 59% 29.70 in 10.0 mi SSE 4.6 mph - N/A   Clear
7:05 PM 62.6 °F - 48.2 °F 59% 29.69 in 10.0 mi SE 4.6 mph - N/A   Clear
7:25 PM 60.8 °F - 48.2 °F 63% 29.69 in 10.0 mi SE 3.5 mph - N/A   Clear
7:45 PM 60.8 °F - 48.2 °F 63% 29.69 in 10.0 mi SE 4.6 mph - N/A   Clear
8:05 PM 59.0 °F - 48.2 °F 67% 29.69 in 10.0 mi SE 3.5 mph - N/A   Clear
8:25 PM 59.0 °F - 48.2 °F 67% 29.70 in 10.0 mi ESE 3.5 mph - N/A   Clear
8:45 PM 57.2 °F - 48.2 °F 72% 29.69 in 10.0 mi SE 4.6 mph - N/A   Clear
9:05 PM 57.2 °F - 48.2 °F 72% 29.68 in 10.0 mi SE 4.6 mph - N/A   Clear
9:25 PM 57.2 °F - 48.2 °F 72% 29.67 in 10.0 mi SE 4.6 mph - N/A   Clear
9:45 PM 59.0 °F - 48.2 °F 67% 29.66 in 10.0 mi SE 5.8 mph - N/A   Clear
10:05 PM 60.8 °F - 48.2 °F 63% 29.66 in 10.0 mi SSE 5.8 mph - N/A   Clear
10:25 PM 60.8 °F - 48.2 °F 63% 29.64 in 10.0 mi SSE 9.2 mph - N/A   Clear
10:45 PM 60.8 °F - 48.2 °F 63% 29.64 in 10.0 mi SSE 6.9 mph - N/A   Clear
11:05 PM 59.0 °F - 48.2 °F 67% 29.63 in 10.0 mi SSE 5.8 mph - N/A   Clear
11:25 PM 59.0 °F - 48.2 °F 67% 29.62 in 10.0 mi SE 6.9 mph - N/A   Clear
11:45 PM 59.0 °F - 48.2 °F 67% 29.61 in 10.0 mi SE 8.1 mph - N/A   Clear